Time;durP1;ratioP1;P1;durP2;ratioP2;P2;SDS_P1;SDS_P2;PMS_P1;PMS_P2;Temp;Humidity;BMP_temperature;BMP_pressure;BME280_temperature;BME280_humidity;BME280_pressure;Samples;Min_cycle;Max_cycle;Signal;HPM_P1;HPM_P2
2022/01/25 00:27:38;;;;;;;;;;;7.60;97.90;;;;;;10520898;28;20359;-68
2022/01/25 00:32:36;;;;;;;37.05;16.27;;;7.60;97.60;;;;;;10541371;28;19912;-68
2022/01/25 00:37:36;;;;;;;37.40;16.40;;;7.60;97.90;;;;;;10495205;28;20021;-69
2022/01/25 00:42:37;;;;;;;39.13;16.80;;;7.60;97.90;;;;;;10502388;28;20128;-66
2022/01/25 00:47:41;;;;;;;44.80;16.42;;;7.60;97.90;;;;;;10492793;28;20041;-68
2022/01/25 00:57:43;;;;;;;42.33;17.25;;;7.60;97.90;;;;;;10545878;28;20023;-68
2022/01/25 01:02:45;;;;;;;40.60;16.58;;;7.60;98.10;;;;;;10506241;28;20135;-65
2022/01/25 01:07:45;;;;;;;40.78;17.95;;;7.60;97.90;;;;;;10525740;28;20032;-66
2022/01/25 01:39:44;;;;;;;40.08;17.10;;;7.60;97.80;;;;;;10496383;28;20163;-65
2022/01/25 01:50:15;;;;;;;40.75;17.88;;;7.50;97.80;;;;;;10484932;28;20037;-69
2022/01/25 01:55:16;;;;;;;44.15;18.15;;;7.60;97.80;;;;;;10515673;28;20036;-68
2022/01/25 02:00:19;;;;;;;43.80;18.73;;;7.60;97.80;;;;;;10519932;28;20610;-68
2022/01/25 02:05:19;;;;;;;41.15;18.08;;;7.50;97.80;;;;;;10498972;28;20072;-65
2022/01/25 02:10:20;;;;;;;45.45;18.90;;;7.50;97.80;;;;;;10512514;28;20169;-68
2022/01/25 02:15:22;;;;;;;44.17;19.02;;;7.50;97.80;;;;;;10490536;28;20108;-65
2022/01/25 02:25:42;;;;;;;42.35;17.80;;;7.50;97.80;;;;;;10506994;28;20105;-68
2022/01/25 02:30:45;;;;;;;42.08;17.65;;;7.50;97.80;;;;;;10520280;28;20133;-65
2022/01/25 02:35:46;;;;;;;43.15;19.55;;;7.50;97.70;;;;;;10503091;28;20036;-66
2022/01/25 02:40:46;;;;;;;43.47;18.45;;;7.70;97.80;;;;;;10487730;28;20032;-69
2022/01/25 02:46:06;;;;;;;41.85;17.58;;;7.50;97.70;;;;;;10505483;28;20055;-66
2022/01/25 02:51:06;;;;;;;40.85;17.92;;;7.50;97.70;;;;;;10483655;28;20552;-69
2022/01/25 02:56:07;;;;;;;41.60;17.63;;;7.50;97.70;;;;;;10469809;28;20059;-68
2022/01/25 03:01:08;;;;;;;43.03;17.63;;;7.50;97.70;;;;;;10498208;28;20478;-68
2022/01/25 03:06:09;;;;;;;41.55;16.95;;;7.50;97.70;;;;;;10509347;28;20035;-69
2022/01/25 03:11:10;;;;;;;37.75;16.45;;;7.60;97.70;;;;;;10496382;28;20486;-67
2022/01/25 03:16:19;;;;;;;46.67;19.15;;;7.50;97.70;;;;;;10486347;28;20025;-68
2022/01/25 03:21:41;;;;;;;44.65;18.27;;;7.50;97.60;;;;;;10506410;28;20037;-68
2022/01/25 03:26:41;;;;;;;41.03;17.60;;;7.50;97.70;;;;;;10516663;28;20085;-68
2022/01/25 03:31:42;;;;;;;41.55;17.00;;;7.50;97.60;;;;;;10510132;28;20144;-69
2022/01/25 03:36:42;;;;;;;41.97;16.40;;;7.50;97.60;;;;;;10502097;28;20020;-68
2022/01/25 03:41:43;;;;;;;46.65;18.83;;;7.50;97.70;;;;;;10492118;28;20020;-68
2022/01/25 03:51:48;;;;;;;43.97;17.50;;;7.40;97.60;;;;;;10485505;28;20031;-69
2022/01/25 03:56:49;;;;;;;41.17;17.50;;;7.50;97.60;;;;;;10528891;28;20469;-69
2022/01/25 04:01:50;;;;;;;48.05;18.70;;;7.40;97.60;;;;;;10504298;28;20494;-66
2022/01/25 04:06:52;;;;;;;42.65;16.77;;;7.40;97.60;;;;;;10527597;28;20103;-68
2022/01/25 04:11:52;;;;;;;44.60;17.55;;;7.40;97.60;;;;;;10499059;28;20020;-69
2022/01/25 04:17:01;;;;;;;41.00;17.17;;;7.40;97.60;;;;;;10486348;28;20570;-68
2022/01/25 04:27:11;;;;;;;42.05;17.88;;;7.40;97.60;;;;;;10504535;28;20060;-68
2022/01/25 04:32:13;;;;;;;43.92;17.50;;;7.40;97.60;;;;;;10491499;28;20122;-67
2022/01/25 04:48:55;;;;;;;45.30;18.08;;;7.40;97.60;;;;;;10509424;28;20375;-68
2022/01/25 04:58:35;;;;;;;47.78;16.65;;;7.40;97.60;;;;;;10523208;28;19904;-66
2022/01/25 05:03:53;;;;;;;40.33;16.95;;;7.40;97.60;;;;;;10491594;28;20053;-68
2022/01/25 05:09:04;;;;;;;43.75;17.77;;;7.40;97.50;;;;;;10512158;28;20108;-67
2022/01/25 05:24:19;;;;;;;50.22;18.17;;;7.40;97.60;;;;;;10502126;28;20081;-68
2022/01/25 05:29:20;;;;;;;43.55;17.60;;;7.40;97.60;;;;;;10519388;28;20505;-69
2022/01/25 05:34:21;;;;;;;45.67;18.65;;;7.40;97.80;;;;;;10528061;28;20562;-68
2022/01/25 05:39:32;;;;;;;46.80;17.98;;;7.40;97.80;;;;;;10503497;28;20024;-69
2022/01/25 05:49:52;;;;;;;44.17;17.52;;;7.40;97.60;;;;;;10510974;28;20217;-68
2022/01/25 05:54:53;;;;;;;43.25;16.65;;;7.40;97.60;;;;;;10504320;28;20037;-68
2022/01/25 05:59:54;;;;;;;43.53;17.23;;;7.40;97.60;;;;;;10522388;28;20016;-68
2022/01/25 06:04:55;;;;;;;46.35;16.98;;;7.40;97.60;;;;;;10511892;28;20075;-66
2022/01/25 06:09:55;;;;;;;44.38;17.63;;;7.40;97.60;;;;;;10521596;28;20067;-68
2022/01/25 06:14:56;;;;;;;42.35;17.67;;;7.40;97.60;;;;;;10488961;28;20024;-68
2022/01/25 06:19:57;;;;;;;43.17;16.58;;;7.40;97.60;;;;;;10484827;28;20141;-68
2022/01/25 06:24:58;;;;;;;46.40;17.95;;;7.40;97.60;;;;;;10508260;28;20044;-66
2022/01/25 06:29:58;;;;;;;40.85;16.25;;;7.40;97.50;;;;;;10511601;28;20089;-66
2022/01/25 06:34:59;;;;;;;44.30;18.00;;;7.40;97.60;;;;;;10497464;28;20401;-66
2022/01/25 06:40:00;;;;;;;40.35;16.20;;;7.40;97.60;;;;;;10489082;28;20024;-66
2022/01/25 06:45:04;;;;;;;44.53;16.50;;;7.40;97.60;;;;;;10509368;28;20088;-66
2022/01/25 06:50:06;;;;;;;45.10;16.88;;;7.40;97.60;;;;;;10480829;28;20060;-65
2022/01/25 06:55:12;;;;;;;45.17;17.45;;;7.30;97.60;;;;;;10511077;28;20063;-65
2022/01/25 07:00:21;;;;;;;42.08;16.95;;;7.30;97.50;;;;;;10528159;28;20032;-66
2022/01/25 07:05:22;;;;;;;42.10;15.82;;;7.30;97.50;;;;;;10520453;28;20388;-67
2022/01/25 07:10:23;;;;;;;41.47;16.75;;;7.50;97.60;;;;;;10485204;28;20012;-68
2022/01/25 07:15:24;;;;;;;48.05;17.45;;;7.50;97.60;;;;;;10485705;28;20039;-66
2022/01/25 07:20:25;;;;;;;49.17;18.83;;;7.30;97.60;;;;;;10503095;28;20027;-66
2022/01/25 07:25:26;;;;;;;47.22;17.15;;;7.30;97.60;;;;;;10508134;28;20032;-64
2022/01/25 07:30:27;;;;;;;48.03;19.67;;;7.30;97.50;;;;;;10526902;28;20028;-64
2022/01/25 07:35:27;;;;;;;47.17;16.60;;;7.30;97.50;;;;;;10511335;28;20032;-63
2022/01/25 07:40:29;;;;;;;50.08;18.48;;;7.30;97.50;;;;;;10486696;28;20044;-64
2022/01/25 07:45:34;;;;;;;46.83;18.55;;;7.30;97.50;;;;;;10501612;28;20110;-65
2022/01/25 07:50:36;;;;;;;45.67;17.45;;;7.30;97.50;;;;;;10483113;28;20020;-65
2022/01/25 07:55:37;;;;;;;49.80;17.77;;;7.30;97.50;;;;;;10469693;28;20023;-65
2022/01/25 08:00:38;;;;;;;46.53;18.10;;;7.30;97.50;;;;;;10512651;28;20419;-65
2022/01/25 08:05:38;;;;;;;47.00;17.00;;;7.30;97.50;;;;;;10506121;28;20499;-65
2022/01/25 08:10:39;;;;;;;48.35;17.27;;;7.30;97.50;;;;;;10499696;28;20029;-65
2022/01/25 08:15:40;;;;;;;47.40;18.17;;;7.30;97.50;;;;;;10490203;28;20128;-65
2022/01/25 08:20:41;;;;;;;46.60;16.60;;;7.40;97.50;;;;;;10498094;28;20495;-65
2022/01/25 08:25:41;;;;;;;46.28;17.65;;;7.30;97.50;;;;;;10482809;28;20248;-63
2022/01/25 08:30:42;;;;;;;45.60;17.90;;;7.30;97.50;;;;;;10514879;28;20021;-63
2022/01/25 08:35:43;;;;;;;50.78;18.58;;;7.30;97.50;;;;;;10507584;28;20127;-64
2022/01/25 08:40:44;;;;;;;47.65;18.70;;;7.30;97.50;;;;;;10524524;28;20020;-63
2022/01/25 08:45:44;;;;;;;45.40;18.33;;;7.30;97.50;;;;;;10504305;28;20526;-64
2022/01/25 08:50:45;;;;;;;49.38;18.80;;;7.30;97.50;;;;;;10485612;28;20028;-64
2022/01/25 08:55:46;;;;;;;50.00;17.45;;;7.30;97.50;;;;;;10517482;28;20041;-63
2022/01/25 09:00:46;;;;;;;48.88;18.67;;;7.70;97.60;;;;;;10537716;28;20063;-65
2022/01/25 09:05:48;;;;;;;47.15;18.50;;;7.30;97.50;;;;;;10534363;28;20043;-65
2022/01/25 09:10:52;;;;;;;43.78;16.23;;;8.30;97.70;;;;;;10506521;28;20021;-63
2022/01/25 09:15:53;;;;;;;45.95;17.30;;;7.30;97.50;;;;;;10499033;28;20107;-64
2022/01/25 09:20:55;;;;;;;44.05;17.50;;;7.30;97.40;;;;;;10513731;28;20021;-64
2022/01/25 09:25:56;;;;;;;47.72;18.63;;;7.30;97.50;;;;;;10509994;28;20078;-64
2022/01/25 09:30:57;;;;;;;45.65;18.02;;;7.30;97.40;;;;;;10518127;28;20558;-65
2022/01/25 09:35:58;;;;;;;50.85;19.35;;;7.30;97.40;;;;;;10528803;28;20032;-65
2022/01/25 09:40:59;;;;;;;50.67;19.15;;;7.30;97.40;;;;;;10530878;28;20012;-64
2022/01/25 09:46:00;;;;;;;48.92;17.67;;;7.60;97.50;;;;;;10509909;28;20055;-66
2022/01/25 09:51:02;;;;;;;45.22;16.27;;;7.30;97.40;;;;;;10489227;28;20487;-66
2022/01/25 09:56:03;;;;;;;51.53;17.70;;;7.30;97.40;;;;;;10513200;28;20028;-65
2022/01/25 10:01:05;;;;;;;49.47;18.02;;;7.30;97.40;;;;;;10535991;28;20036;-66
2022/01/25 10:06:15;;;;;;;44.15;16.88;;;7.30;97.40;;;;;;10517767;28;20377;-64
2022/01/25 10:11:16;;;;;;;45.70;17.65;;;7.30;97.30;;;;;;10501242;28;20358;-66
2022/01/25 10:16:34;;;;;;;45.92;18.15;;;7.30;97.40;;;;;;10490846;28;20032;-65
2022/01/25 10:21:41;;;;;;;46.42;17.70;;;7.30;97.30;;;;;;10506777;28;20241;-66
2022/01/25 10:26:42;;;;;;;48.78;17.08;;;7.30;97.30;;;;;;10503924;28;20043;-65
2022/01/25 10:31:46;;;;;;;51.42;17.88;;;7.30;97.30;;;;;;10510517;28;20019;-66
2022/01/25 10:36:49;;;;;;;44.13;16.55;;;7.30;97.30;;;;;;10501718;28;20013;-65
2022/01/25 10:41:50;;;;;;;50.05;17.17;;;7.30;97.30;;;;;;10491925;28;20035;-64
2022/01/25 10:46:50;;;;;;;45.45;17.35;;;7.30;97.30;;;;;;10502876;28;20438;-64
2022/01/25 10:51:51;;;;;;;46.20;18.38;;;7.30;97.30;;;;;;10497830;28;20363;-64
2022/01/25 10:56:59;;;;;;;47.95;18.38;;;7.30;97.30;;;;;;10500055;28;20028;-65
2022/01/25 11:02:04;;;;;;;46.25;17.02;;;7.30;97.30;;;;;;10514606;28;20030;-64
2022/01/25 11:07:08;;;;;;;44.55;18.73;;;7.30;97.30;;;;;;10519144;28;20019;-66
2022/01/25 11:12:13;;;;;;;51.05;18.02;;;7.30;97.40;;;;;;10484524;28;20024;-65
2022/01/25 11:17:14;;;;;;;46.13;16.40;;;7.30;97.40;;;;;;10472818;28;20511;-66
2022/01/25 11:22:22;;;;;;;42.65;15.70;;;7.40;97.40;;;;;;10505630;28;20078;-66
2022/01/25 11:27:25;;;;;;;37.67;15.30;;;7.30;97.40;;;;;;10518296;28;20034;-66
2022/01/25 11:32:31;;;;;;;43.10;15.77;;;7.30;97.40;;;;;;10511688;28;20024;-66
2022/01/25 11:37:44;;;;;;;45.55;17.52;;;7.30;97.40;;;;;;10499197;28;20507;-65
2022/01/25 11:42:51;;;;;;;42.13;15.98;;;7.30;97.30;;;;;;10519660;28;20044;-65
2022/01/25 11:47:53;;;;;;;42.65;15.63;;;7.40;97.40;;;;;;10484413;28;20088;-65
2022/01/25 11:53:05;;;;;;;45.30;16.13;;;7.30;97.40;;;;;;10495032;28;20039;-65
2022/01/25 11:58:12;;;;;;;46.20;16.15;;;7.40;97.40;;;;;;10509076;28;20031;-65
2022/01/25 12:03:40;;;;;;;45.83;15.45;;;7.40;97.40;;;;;;10524939;28;20040;-65
2022/01/25 12:09:05;;;;;;;38.65;15.32;;;7.40;97.30;;;;;;10519152;28;20075;-66
2022/01/25 12:14:29;;;;;;;40.97;15.57;;;7.40;97.40;;;;;;10491325;28;20107;-65
2022/01/25 12:19:30;;;;;;;45.63;16.50;;;7.40;97.30;;;;;;10486902;28;20111;-65
2022/01/25 12:24:49;;;;;;;40.78;15.77;;;7.40;97.40;;;;;;10508527;28;20028;-66
2022/01/25 12:30:17;;;;;;;43.78;15.60;;;7.40;97.40;;;;;;10529751;28;20033;-66
2022/01/25 12:35:19;;;;;;;38.92;16.10;;;7.40;97.30;;;;;;10508016;28;20032;-63
2022/01/25 12:40:28;;;;;;;44.28;15.93;;;7.40;97.40;;;;;;10511776;28;20029;-64
2022/01/25 12:45:32;;;;;;;40.37;15.50;;;7.40;97.40;;;;;;10501891;28;20506;-65
2022/01/25 12:50:36;;;;;;;42.53;16.25;;;7.40;97.40;;;;;;10490906;28;20429;-64
2022/01/25 12:55:41;;;;;;;41.55;15.40;;;7.40;97.40;;;;;;10515112;28;20707;-65
2022/01/25 13:00:46;;;;;;;45.42;15.43;;;7.40;97.40;;;;;;10536913;28;20108;-65
2022/01/25 13:05:53;;;;;;;39.53;14.35;;;7.40;97.40;;;;;;10534387;28;20167;-63
2022/01/25 13:11:26;;;;;;;39.60;14.95;;;7.40;97.40;;;;;;10505785;28;20365;-65
2022/01/25 13:16:43;;;;;;;45.28;15.70;;;7.40;97.30;;;;;;10489989;28;20169;-66
2022/01/25 13:21:59;;;;;;;40.25;15.50;;;7.40;97.30;;;;;;10519933;28;20016;-65
2022/01/25 13:27:02;;;;;;;35.63;13.95;;;7.40;97.30;;;;;;10505773;28;20035;-65
2022/01/25 13:32:14;;;;;;;39.80;15.38;;;7.40;97.30;;;;;;10518731;28;20039;-63
2022/01/25 13:37:21;;;;;;;43.88;15.50;;;7.40;97.30;;;;;;10505251;28;20111;-65
2022/01/25 13:42:34;;;;;;;42.15;15.35;;;7.40;97.30;;;;;;10516659;28;20529;-66
2022/01/25 13:47:35;;;;;;;47.25;16.58;;;7.40;97.40;;;;;;10490147;28;20056;-64
2022/01/25 13:52:35;;;;;;;42.63;15.90;;;7.40;97.30;;;;;;10491829;28;20062;-65
2022/01/25 13:57:36;;;;;;;38.83;15.07;;;7.40;97.30;;;;;;10502286;28;20030;-66
2022/01/25 14:02:38;;;;;;;39.45;15.10;;;7.40;97.30;;;;;;10528751;28;20060;-65
2022/01/25 14:07:38;;;;;;;43.65;15.43;;;7.30;97.30;;;;;;10523643;28;20115;-66
2022/01/25 14:28:25;;;;;;;38.67;14.57;;;7.40;97.40;;;;;;10516123;28;20016;-65
2022/01/25 14:33:32;;;;;;;42.72;15.55;;;7.40;97.40;;;;;;10520324;28;20511;-65
2022/01/25 14:38:36;;;;;;;39.88;14.70;;;7.40;97.40;;;;;;10487461;28;20043;-63
2022/01/25 14:44:00;;;;;;;44.85;14.75;;;7.40;97.40;;;;;;10511394;28;20122;-65
2022/01/25 14:49:22;;;;;;;38.75;13.68;;;7.30;97.30;;;;;;10429405;28;20222;-64
2022/01/25 14:54:29;;;;;;;38.17;15.07;;;7.40;97.40;;;;;;10463509;28;20616;-64
2022/01/25 14:59:36;;;;;;;39.65;14.32;;;7.40;97.40;;;;;;10476756;28;20417;-63
2022/01/25 15:04:42;;;;;;;40.35;14.02;;;7.40;97.40;;;;;;10460996;28;20033;-63
2022/01/25 15:09:49;;;;;;;37.85;14.57;;;7.30;97.40;;;;;;10447596;28;20029;-65
2022/01/25 15:14:57;;;;;;;39.80;14.52;;;7.40;97.50;;;;;;10443387;28;20029;-62
2022/01/25 15:19:58;;;;;;;36.90;13.57;;;7.30;97.50;;;;;;10451927;28;20063;-62
2022/01/25 15:25:00;;;;;;;35.90;13.45;;;7.30;97.50;;;;;;10454191;28;20040;-66
2022/01/25 15:30:04;;;;;;;41.38;13.93;;;7.30;97.50;;;;;;10443752;28;20025;-66
2022/01/25 15:35:06;;;;;;;37.28;13.88;;;7.30;97.50;;;;;;10447529;28;20025;-66
2022/01/25 15:40:07;;;;;;;39.58;13.95;;;7.30;97.60;;;;;;10466973;28;20029;-66
2022/01/25 15:45:24;;;;;;;39.38;14.20;;;7.30;97.60;;;;;;10474777;28;20778;-64
2022/01/25 15:50:27;;;;;;;36.63;13.77;;;7.30;97.60;;;;;;10485076;28;20032;-67
2022/01/25 15:55:27;;;;;;;37.17;12.95;;;7.30;97.60;;;;;;10504396;28;20055;-64
2022/01/25 16:00:28;;;;;;;36.92;13.07;;;7.40;97.60;;;;;;10519684;28;20070;-66
2022/01/25 16:05:29;;;;;;;34.97;12.40;;;7.30;97.60;;;;;;10491814;28;20044;-69
2022/01/25 16:10:32;;;;;;;36.45;12.85;;;7.30;97.60;;;;;;10488170;28;20073;-66
2022/01/25 16:15:33;;;;;;;35.05;12.98;;;7.30;97.70;;;;;;10498182;28;20032;-68
2022/01/25 16:20:35;;;;;;;46.03;13.98;;;7.20;97.70;;;;;;10497702;28;20016;-65
2022/01/25 16:25:36;;;;;;;49.47;15.63;;;7.20;97.70;;;;;;10513229;28;20028;-68
2022/01/25 16:30:37;;;;;;;41.55;14.50;;;7.30;97.70;;;;;;10509912;28;20028;-64
2022/01/25 16:35:38;;;;;;;40.10;14.43;;;7.20;97.70;;;;;;10496654;28;20028;-63
2022/01/25 16:40:40;;;;;;;46.15;15.13;;;7.10;97.70;;;;;;10478589;28;20052;-65
2022/01/25 16:45:40;;;;;;;43.20;15.15;;;7.10;97.70;;;;;;10492001;28;20060;-64
2022/01/25 16:50:41;;;;;;;39.13;13.45;;;7.20;97.70;;;;;;10480584;28;20485;-61
2022/01/25 16:55:42;;;;;;;44.72;14.88;;;7.10;97.70;;;;;;10511380;28;20103;-65
2022/01/25 17:00:43;;;;;;;37.13;13.20;;;7.10;97.70;;;;;;10523467;28;20025;-63
2022/01/25 17:05:44;;;;;;;36.08;14.05;;;7.10;97.60;;;;;;10501208;28;20097;-65
2022/01/25 17:10:45;;;;;;;42.60;13.77;;;7.10;97.60;;;;;;10494518;28;20050;-66
2022/01/25 17:15:47;;;;;;;40.33;15.15;;;7.10;97.60;;;;;;10501385;28;20063;-64
2022/01/25 17:20:47;;;;;;;43.13;14.05;;;7.10;97.60;;;;;;10527363;28;20039;-66
2022/01/25 17:25:48;;;;;;;40.15;14.15;;;7.20;97.60;;;;;;10509431;28;20041;-66
2022/01/25 17:30:51;;;;;;;39.53;15.15;;;7.50;97.70;;;;;;10531759;28;20091;-66
2022/01/25 17:35:53;;;;;;;41.45;14.45;;;7.20;97.60;;;;;;10510413;28;20039;-66
2022/01/25 17:40:53;;;;;;;42.60;15.00;;;7.20;97.60;;;;;;10488211;28;20036;-68
2022/01/25 17:45:54;;;;;;;46.67;15.73;;;7.20;97.70;;;;;;10493775;28;20040;-65
2022/01/25 17:50:55;;;;;;;39.30;14.93;;;7.20;97.70;;;;;;10487789;28;20328;-64
2022/01/25 17:55:56;;;;;;;44.97;15.95;;;7.60;97.80;;;;;;10488596;28;20029;-67
2022/01/25 18:00:57;;;;;;;42.05;14.93;;;7.30;97.70;;;;;;10493816;28;20138;-66
2022/01/25 18:05:58;;;;;;;43.88;15.70;;;7.30;97.70;;;;;;10514317;28;20094;-66
2022/01/25 18:10:59;;;;;;;39.75;13.32;;;7.30;97.70;;;;;;10509412;28;20032;-66
2022/01/25 18:16:00;;;;;;;40.33;14.63;;;7.30;97.80;;;;;;10501188;28;20414;-66
2022/01/25 18:21:04;;;;;;;41.08;14.40;;;7.30;97.80;;;;;;10514044;28;20034;-64
2022/01/25 18:31:09;;;;;;;40.88;14.60;;;7.30;97.80;;;;;;10510314;28;20501;-66
2022/01/25 18:36:10;;;;;;;35.13;13.13;;;7.30;97.90;;;;;;10519036;28;20020;-66
2022/01/25 18:41:10;;;;;;;34.97;13.50;;;7.30;97.90;;;;;;10505227;28;20390;-66
2022/01/25 18:46:12;;;;;;;35.10;12.95;;;7.40;97.90;;;;;;10501581;28;20427;-64
2022/01/25 18:51:12;;;;;;;38.90;13.73;;;7.40;98.00;;;;;;10503819;28;20036;-63
2022/01/25 18:56:13;;;;;;;40.13;13.65;;;7.40;98.00;;;;;;10494889;28;20031;-65
2022/01/25 19:01:14;;;;;;;38.08;13.65;;;7.40;98.00;;;;;;10507081;28;20028;-65
2022/01/25 19:06:16;;;;;;;38.05;13.75;;;7.40;98.00;;;;;;10509403;28;20351;-63
2022/01/25 19:11:18;;;;;;;40.38;14.15;;;7.40;98.00;;;;;;10506975;28;20024;-65
2022/01/25 19:16:19;;;;;;;35.95;12.90;;;7.40;98.10;;;;;;10494256;28;20394;-64
2022/01/25 19:21:22;;;;;;;40.55;12.80;;;7.30;98.00;;;;;;10506501;28;20393;-63
2022/01/25 19:26:22;;;;;;;42.15;13.68;;;7.40;98.10;;;;;;10507635;28;20420;-65
2022/01/25 19:31:23;;;;;;;39.50;14.05;;;7.30;98.20;;;;;;10501374;28;20047;-65
2022/01/25 19:36:24;;;;;;;37.83;13.75;;;7.30;98.00;;;;;;10506279;28;20039;-65
2022/01/25 19:41:26;;;;;;;40.72;13.32;;;7.30;98.00;;;;;;10503648;28;20473;-66
2022/01/25 19:46:27;;;;;;;35.65;13.40;;;7.40;98.10;;;;;;10506258;28;20053;-66
2022/01/25 19:51:31;;;;;;;36.78;13.15;;;7.30;98.00;;;;;;10508633;28;20384;-65
2022/01/25 19:56:35;;;;;;;37.42;12.73;;;7.20;98.00;;;;;;10503484;28;20082;-66
2022/01/25 20:01:40;;;;;;;46.47;14.80;;;7.30;98.00;;;;;;10517139;28;20020;-66
2022/01/25 20:06:42;;;;;;;40.20;13.32;;;7.20;98.00;;;;;;10514047;28;20140;-66
2022/01/25 20:11:42;;;;;;;42.20;14.68;;;7.20;98.00;;;;;;10502070;28;20015;-66
2022/01/25 20:16:49;;;;;;;38.70;14.43;;;7.20;98.20;;;;;;10516672;28;20035;-63
2022/01/25 20:21:59;;;;;;;41.40;13.63;;;7.20;98.00;;;;;;10520550;28;20032;-66
2022/01/25 20:27:12;;;;;;;40.53;14.25;;;7.20;98.00;;;;;;10499809;28;20051;-66
2022/01/25 20:32:13;;;;;;;41.58;13.98;;;7.20;98.00;;;;;;10509269;28;20024;-66
2022/01/25 20:37:14;;;;;;;40.70;14.80;;;7.20;97.90;;;;;;10499044;28;20176;-65
2022/01/25 20:42:15;;;;;;;39.40;13.85;;;7.20;97.90;;;;;;10501474;28;20389;-66
2022/01/25 20:47:16;;;;;;;40.05;14.23;;;7.20;97.90;;;;;;10508253;28;20052;-66
2022/01/25 20:52:18;;;;;;;40.85;13.60;;;7.30;97.90;;;;;;10514205;28;20044;-66
2022/01/25 20:57:18;;;;;;;42.13;13.70;;;7.20;97.90;;;;;;10530323;28;20026;-66
2022/01/25 21:02:26;;;;;;;37.88;13.93;;;7.10;97.90;;;;;;10518971;28;20120;-66
2022/01/25 21:07:29;;;;;;;37.42;13.88;;;7.10;97.90;;;;;;10509566;28;20036;-66
2022/01/25 21:12:29;;;;;;;41.30;14.07;;;7.20;97.90;;;;;;10510900;28;20039;-65
2022/01/25 21:17:30;;;;;;;44.42;14.35;;;7.10;97.90;;;;;;10518412;28;20040;-66
2022/01/25 21:22:31;;;;;;;37.83;14.05;;;7.10;97.90;;;;;;10511474;28;20481;-66
2022/01/25 21:27:32;;;;;;;40.83;14.63;;;7.10;97.80;;;;;;10502249;28;20102;-64
2022/01/25 21:32:35;;;;;;;42.10;13.85;;;7.10;97.80;;;;;;10509508;28;20453;-64
2022/01/25 21:37:36;;;;;;;41.65;14.70;;;7.10;97.80;;;;;;10523115;28;20039;-65
2022/01/25 21:42:37;;;;;;;46.35;14.02;;;7.10;97.80;;;;;;10515075;28;20034;-65
2022/01/25 21:47:38;;;;;;;39.53;14.07;;;7.10;97.80;;;;;;10461913;28;20068;-66
2022/01/25 21:52:39;;;;;;;42.83;14.43;;;7.10;97.80;;;;;;10469072;28;20037;-66
2022/01/25 21:57:40;;;;;;;40.40;14.35;;;7.10;97.80;;;;;;10478334;28;20393;-65
2022/01/25 22:02:43;;;;;;;42.83;15.48;;;7.10;97.80;;;;;;10471537;28;20121;-63
2022/01/25 22:07:53;;;;;;;43.15;15.52;;;7.10;97.80;;;;;;10465847;28;20471;-67
2022/01/25 22:12:59;;;;;;;42.53;14.77;;;7.10;97.80;;;;;;10464207;28;20037;-67
2022/01/25 22:18:00;;;;;;;47.95;16.17;;;7.00;97.70;;;;;;10470859;28;20034;-67
2022/01/25 22:23:02;;;;;;;41.03;14.77;;;7.00;97.70;;;;;;10468790;28;20079;-67
2022/01/25 22:28:03;;;;;;;37.78;13.68;;;7.10;97.70;;;;;;10460402;28;20029;-67
2022/01/25 22:33:05;;;;;;;43.83;14.43;;;7.00;97.70;;;;;;10461135;28;20035;-67
2022/01/25 22:38:06;;;;;;;47.08;16.02;;;7.00;97.70;;;;;;10457716;28;20020;-65
2022/01/25 22:43:16;;;;;;;47.22;15.63;;;7.00;97.70;;;;;;10488778;28;20444;-66
2022/01/25 22:48:24;;;;;;;43.50;15.50;;;7.00;97.70;;;;;;10527478;28;20472;-66
2022/01/25 22:53:25;;;;;;;45.75;16.40;;;7.10;97.70;;;;;;10510525;28;20477;-67
2022/01/25 22:58:26;;;;;;;45.78;15.30;;;7.30;97.80;;;;;;10519562;28;20028;-67
2022/01/25 23:03:27;;;;;;;41.28;13.18;;;7.20;97.80;;;;;;10494743;28;20050;-67
2022/01/25 23:08:28;;;;;;;41.25;14.30;;;7.00;97.70;;;;;;10508776;28;20043;-65
2022/01/25 23:18:44;;;;;;;41.63;14.05;;;7.00;97.70;;;;;;10520783;28;20469;-67
2022/01/25 23:23:48;;;;;;;;;;;7.00;97.70;;;;;;10513451;28;20119;-66
2022/01/25 23:28:55;;;;;;;42.25;14.57;;;7.00;97.50;;;;;;10513509;28;19908;-67
2022/01/25 23:34:11;;;;;;;44.08;14.52;;;7.00;97.70;;;;;;10526652;28;20476;-66
2022/01/25 23:39:28;;;;;;;44.30;16.02;;;7.00;97.70;;;;;;10513872;28;20032;-68
2022/01/25 23:44:38;;;;;;;39.20;14.20;;;7.00;97.60;;;;;;10499064;28;20060;-67
2022/01/25 23:49:47;;;;;;;42.88;14.43;;;7.00;97.70;;;;;;10506707;28;20048;-67
